Terminal Aerodrome Forecast
Issued by NWS Charleston, WV

Current Version | Previous Version | Text Only | Print | Product List | Glossary Off
Versions: 1 2 3 4 5 6 7 8 9 10 11 12 13 14 15 16 17 18 19 20 21 22 23

000
FTUS41 KRLX 192336
TAFEKN
TAF
KEKN 192336Z 2000/2024 19004KT 6SM -SHRA VCTS BKN035CB
     FM200300 21006KT 4SM -SHRA BR BKN040
     FM200600 00000KT 2SM BR OVC001
     FM201000 24006KT P6SM OVC010
     FM201700 28007KT P6SM BKN025=

USA.gov is the U.S. government's official web portal to all federal, state and local government web resources and services.